ADDS METAR Data INFO
IDs: Format: Raw Decoded Include TAF

Data at: 0233 UTC 26 Jul 2017

KAFO 260215Z AUTO 33006KT 10SM OVC110 20/11 A3021 RMK AO2 TSNO
KAFO 260155Z AUTO 33007KT 10SM OVC110 20/11 A3020 RMK AO2 TSNO
KAFO 260135Z AUTO 33007KT BKN120 19/10 A3020 RMK AO2 TSNO
KAFO 260115Z AUTO 33007KT 10SM SCT085 BKN120 21/11 A3020 RMK AO2 TSNO
KAFO 260055Z AUTO 33007KT 10SM SCT075 OVC085 21/11 A3021 RMK AO2 TSNO
KAFO 260035Z AUTO 33007KT 10SM OVC075 21/11 A3021 RMK AO2 TSNO
KAFO 260015Z AUTO 33006KT 10SM OVC075 21/11 A3021 RMK AO2 TSNO
KAFO 252355Z AUTO 32007KT 10SM SCT075 OVC100 21/11 A3021 RMK AO2 TSNO
KAFO 252335Z AUTO 10SM BKN100 21/11 A3022 RMK AO2 TSNO
KAFO 252315Z AUTO 10SM SCT037 SCT070 BKN110 21/10 A3022 RMK AO2 TSNO
KAFO 252255Z AUTO 32006KT -RA SCT031 BKN100 OVC120 21/11 A3022 RMK AO2 TSNO
KAFO 252235Z AUTO 33007KT 10SM SCT044 SCT060 OVC100 20/11 A3023 RMK AO2 TSNO
KAFO 252215Z AUTO 33007G14KT SCT050 SCT070 BKN085 20/10 A3023 RMK AO2 TSNO
KAFO 252155Z AUTO 33011G15KT 10SM SCT070 BKN110 21/10 A3023 RMK AO2 TSNO
KAFO 252135Z AUTO 33008G16KT 10SM BKN070 BKN110 21/10 A3024 RMK AO2 TSNO
KAFO 252115Z AUTO 33010G17KT 10SM SCT070 BKN110 21/09 A3024 RMK AO2 TSNO
KAFO 252055Z AUTO 34008G16KT 10SM SCT080 BKN110 21/10 A3024 RMK AO2 TSNO
KAFO 252035Z AUTO 34009G17KT 10SM SCT080 OVC110 21/10 A3024 RMK AO2 TSNO
KAFO 252015Z AUTO 33013G18KT 10SM BKN110 21/11 A3024 RMK AO2 TSNO
KAFO 251955Z AUTO 34009G15KT 10SM BKN110 21/10 A3024 RMK AO2 TSNO
KAFO 251935Z AUTO 33007G14KT 10SM OVC110 21/10 A3024 RMK AO2 TSNO
KAFO 251915Z AUTO 34008KT 10SM SCT100 BKN120 21/11 A3023 RMK AO2 TSNO
KAFO 251855Z AUTO 33007KT 10SM OVC110 21/11 A3023 RMK AO2 TSNO
KAFO 251835Z AUTO 34007KT OVC110 20/11 A3023 RMK AO2 TSNO
KAFO 251815Z AUTO 33006KT 10SM BKN110 20/11 A3023 RMK AO2 TSNO
KAFO 251755Z AUTO 35006G14KT 10SM SCT100 BKN120 21/10 A3022 RMK AO2 TSNO
KAFO 251735Z AUTO 34006KT 10SM BKN100 BKN120 20/10 A3022 RMK AO2 TSNO
KAFO 251715Z AUTO SCT110 21/08 A3022 RMK AO2 TSNO
KAFO 251655Z AUTO 35003KT SCT120 20/08 A3022 RMK AO2 TSNO
KAFO 251635Z AUTO 35006KT 10SM BKN120 18/10 A3022 RMK AO2 TSNO
KAFO 251615Z AUTO 02007KT SCT090 BKN120 18/11 A3022 RMK AO2 TSNO
KAFO 251555Z AUTO 35004KT SCT080 BKN090 BKN120 17/11 A3023 RMK AO2 TSNO
KAFO 251535Z AUTO 00000KT OVC080 17/11 A3022 RMK AO2 TSNO
KAFO 251515Z AUTO 19008KT OVC080 17/09 A3022 RMK AO2 TSNO
KAFO 251455Z AUTO 19006KT OVC100 16/10 A3022 RMK AO2 TSNO
KAFO 251435Z AUTO 22003KT OVC110 15/11 A3021 RMK AO2 TSNO
KAFO 251415Z AUTO 20005KT BKN110 15/10 A3020 RMK AO2 TSNO
KAFO 251355Z AUTO 18005KT SCT090 SCT110 14/09 A3020 RMK AO2 TSNO
KAFO 251335Z AUTO 00000KT SCT090 OVC110 13/08 A3019 RMK AO2 TSNO
KAFO 251315Z AUTO 21004KT BKN110 12/09 A3019 RMK AO2 PWINO TSNO
KAFO 251255Z AUTO 20003KT CLR 12/09 A3019 RMK AO2 PWINO TSNO
KAFO 251235Z AUTO 18003KT SCT120 13/08 A3019 RMK AO2 PWINO TSNO
KAFO 251215Z AUTO 00000KT SCT120 12/08 A3019 RMK AO2 TSNO
KAFO 251155Z AUTO 26003KT CLR 12/08 A3018 RMK AO2 TSNO
KAFO 251135Z AUTO 01006KT CLR 12/07 A3018 RMK AO2 TSNO
KAFO 251115Z AUTO 00000KT CLR 12/07 A3017 RMK AO2 TSNO
KAFO 251055Z AUTO 00000KT CLR 13/07 A3016 RMK AO2 PWINO TSNO
KAFO 251035Z AUTO 30010KT SCT110 13/08 A3017 RMK AO2 TSNO
KAFO 251015Z AUTO 15006G15KT 110V180 BKN110 14/07 A3016 RMK AO2 PWINO TSNO
KAFO 250955Z AUTO 00000KT BKN110 14/06 A3015 RMK AO2 TSNO
KAFO 250935Z AUTO 20006KT BKN110 13/08 A3015 RMK AO2 TSNO
KAFO 250915Z AUTO 13004KT BKN110 15/07 A3014 RMK AO2 TSNO
KAFO 250855Z AUTO 20003KT BKN110 15/07 A3014 RMK AO2 TSNO
KAFO 250835Z AUTO 18003KT BKN110 13/08 A3013 RMK AO2 TSNO
KAFO 250815Z AUTO 18005KT CLR 13/08 A3014 RMK AO2 TSNO
KAFO 250755Z AUTO 18003KT SCT120 13/08 A3015 RMK AO2 TSNO
KAFO 250735Z AUTO 00000KT BKN120 13/08 A3014 RMK AO2 TSNO
KAFO 250715Z AUTO 18007KT BKN120 14/08 A3014 RMK AO2 TSNO
KAFO 250655Z AUTO 18008KT SCT120 13/07 A3015 RMK AO2 TSNO
KAFO 250635Z AUTO 20003KT CLR 13/08 A3014 RMK AO2 PWINO TSNO
KAFO 250615Z AUTO 19007KT CLR 15/08 A3013 RMK AO2 TSNO
KAFO 250555Z AUTO 19006KT CLR 15/08 A3013 RMK AO2 TSNO
KAFO 250535Z AUTO 20003KT CLR 15/08 A3014 RMK AO2 TSNO
KAFO 250515Z AUTO 20005KT CLR 15/09 A3014 RMK AO2 TSNO
KAFO 250455Z AUTO 20004KT CLR 16/08 A3014 RMK AO2 TSNO
KAFO 250435Z AUTO 00000KT CLR 17/08 A3014 RMK AO2 PWINO TSNO
KAFO 250415Z AUTO 20003KT CLR 17/10 A3013 RMK AO2 TSNO
KAFO 250355Z AUTO 22004KT CLR 16/11 A3013 RMK AO2 TSNO
KAFO 250335Z AUTO 05004KT 10SM CLR 20/07 A3011 RMK AO2 TSNO
KAFO 250315Z AUTO 00000KT 10SM CLR 21/08 A3011 RMK AO2 TSNO
KAFO 250255Z AUTO 36006KT 10SM CLR 21/07 A3012 RMK AO2 TSNO
KAFO 250235Z AUTO 00000KT 10SM CLR 23/06 A3011 RMK AO2 TSNO
KAFO 250215Z AUTO 00000KT 10SM CLR 23/07 A3010 RMK AO2 TSNO
KAFO 250155Z AUTO 00000KT 10SM CLR 23/11 A3010 RMK AO2 TSNO
KAFO 250135Z AUTO 28005KT 10SM CLR 24/11 A3009 RMK AO2
KAFO 250115Z AUTO 00000KT 10SM CLR 27/09 A3008 RMK AO2 TSNO
KAFO 250055Z AUTO 30003KT 10SM CLR 26/10 A3008 RMK AO2 TSNO
KAFO 250035Z AUTO 28006KT 10SM CLR 28/05 A3008 RMK AO2 TSNO
KAFO 250015Z AUTO 34008KT 10SM CLR 28/06 A3008 RMK AO2
KAFO 242355Z AUTO 34006KT 10SM CLR 27/05 A3008 RMK AO2
KAFO 242335Z AUTO 02007KT 330V040 10SM CLR 27/05 A3008 RMK AO2
KAFO 242315Z AUTO 01006KT 10SM CLR 30/03 A3008 RMK AO2
KAFO 242255Z AUTO 34008KT 10SM CLR 31/03 A3008 RMK AO2
KAFO 242235Z AUTO 35005KT 10SM CLR 30/03 A3009 RMK AO2
KAFO 242215Z AUTO 02006KT 10SM CLR 30/05 A3009 RMK AO2
KAFO 242155Z AUTO 35006KT 10SM CLR 30/03 A3010 RMK AO2
KAFO 242135Z AUTO 00000KT 10SM CLR 30/00 A3010 RMK AO2
KAFO 242115Z AUTO 00000KT 10SM CLR 30/00 A3011 RMK AO2
KAFO 242055Z AUTO 28003KT 10SM SCT120 30/05 A3012 RMK AO2
KAFO 242035Z AUTO 02004KT 10SM SCT120 29/00 A3012 RMK AO2
KAFO 242015Z AUTO 35005KT 10SM SCT110 30/03 A3013 RMK AO2 LTG DSNT SE
KAFO 241955Z AUTO 31007KT 10SM SCT110 29/06 A3013 RMK AO2
KAFO 241935Z AUTO 00000KT 10SM CLR 29/06 A3014 RMK AO2
KAFO 241915Z AUTO 24005KT 10SM CLR 28/08 A3014 RMK AO2 TSNO
KAFO 241855Z AUTO 32005G15KT 10SM SCT110 25/08 A3015 RMK AO2
KAFO 241835Z AUTO 05004KT 10SM SCT110 28/04 A3014 RMK AO2 TSNO
KAFO 241815Z AUTO 00000KT 10SM CLR 27/05 A3015 RMK AO2 TSNO
KAFO 241755Z AUTO 14006KT 10SM CLR 27/05 A3015 RMK AO2 TSNO
KAFO 241735Z AUTO 12003KT 10SM CLR 27/06 A3016 RMK AO2 TSNO
KAFO 241715Z AUTO 00000KT 10SM CLR 26/10 A3016 RMK AO2 TSNO
KAFO 241655Z AUTO 00000KT 10SM CLR 23/07 A3016 RMK AO2 TSNO
KAFO 241635Z AUTO 00000KT 10SM CLR 22/09 A3017 RMK AO2 TSNO
KAFO 241615Z AUTO 00000KT CLR 20/08 A3018 RMK AO2 TSNO
KAFO 241555Z AUTO 00000KT CLR 19/07 A3018 RMK AO2 TSNO
KAFO 241535Z AUTO 20003KT 10SM CLR 18/07 A3019 RMK AO2 TSNO
KAFO 241515Z AUTO 00000KT CLR 16/07 A3019 RMK AO2 TSNO
KAFO 241455Z AUTO 00000KT 10SM CLR 15/06 A3019 RMK AO2 TSNO
KAFO 241435Z AUTO 00000KT 10SM CLR 15/06 A3019 RMK AO2 TSNO